createdAt,value
2019-04-22T00:00:32.813Z,101240.97
2019-04-22T00:01:01.301Z,101246.17
2019-04-22T00:01:35.031Z,101245.27
2019-04-22T00:02:11.095Z,101241.23
2019-04-22T00:02:47.295Z,101245.52
2019-04-22T00:03:15.197Z,101241.48
2019-04-22T00:03:53.221Z,101245.75
2019-04-22T00:04:32.194Z,101242.20
2019-04-22T00:05:04.808Z,101240.75
2019-04-22T00:05:46.925Z,101247.19
2019-04-22T00:06:19.512Z,101243.56
2019-04-22T00:06:57.494Z,101238.26
2019-04-22T00:07:28.419Z,101244.80
2019-04-22T00:08:06.847Z,101236.95
2019-04-22T00:08:36.119Z,101240.87
2019-04-22T00:09:15.975Z,101242.59
2019-04-22T00:09:45.690Z,101245.18
2019-04-22T00:10:21.191Z,101236.84
2019-04-22T00:10:54.217Z,101239.84
2019-04-22T00:11:40.184Z,101240.70
2019-04-22T00:11:58.949Z,101240.36
2019-04-22T00:12:34.866Z,101243.87
2019-04-22T00:13:06.696Z,101242.56
2019-04-22T00:13:46.894Z,101251.17
2019-04-22T00:14:06.716Z,101245.90
2019-04-22T00:14:40.720Z,101245.41
2019-04-22T00:15:18.111Z,101241.90
2019-04-22T00:15:47.777Z,101244.93
2019-04-22T00:16:35.402Z,101241.00
2019-04-22T00:17:13.719Z,101247.06
2019-04-22T00:17:40.139Z,101244.00
2019-04-22T00:18:22.276Z,101237.80
2019-04-22T00:18:54.890Z,101245.05
2019-04-22T00:19:24.312Z,101248.91
2019-04-22T00:19:53.778Z,101251.48
2019-04-22T00:20:35.277Z,101241.32
2019-04-22T00:20:54.444Z,101242.55
2019-04-22T00:22:03.009Z,101250.30
2019-04-22T00:22:33.342Z,101243.79
2019-04-22T00:23:09.820Z,101246.48
2019-04-22T00:23:43.472Z,101241.32
2019-04-22T00:24:12.435Z,101240.83
2019-04-22T00:24:47.822Z,101242.97
2019-04-22T00:25:19.351Z,101246.48
2019-04-22T00:25:55.847Z,101241.84
2019-04-22T00:26:31.162Z,101237.13
2019-04-22T00:26:59.585Z,101241.42
2019-04-22T00:27:33.918Z,101247.97
2019-04-22T00:28:08.512Z,101241.05
2019-04-22T00:28:40.381Z,101232.38
2019-04-22T00:29:26.994Z,101243.74
2019-04-22T00:30:05.338Z,101240.72
2019-04-22T00:30:16.582Z,101240.30
2019-04-22T00:30:48.590Z,101236.38
2019-04-22T00:31:36.691Z,101239.81
2019-04-22T00:32:11.406Z,101245.42
2019-04-22T00:32:51.295Z,101237.91
2019-04-22T00:33:26.822Z,101246.96
2019-04-22T00:33:58.892Z,101245.06
2019-04-22T00:34:33.861Z,101227.56
2019-04-22T00:35:13.349Z,101248.50
2019-04-22T00:35:41.621Z,101241.47
2019-04-22T00:36:24.000Z,101245.36
2019-04-22T00:36:48.322Z,101248.69
2019-04-22T00:37:28.519Z,101248.13
2019-04-22T00:38:03.446Z,101247.65
2019-04-22T00:38:42.065Z,101248.02
2019-04-22T00:39:07.180Z,101249.22
2019-04-22T00:39:42.644Z,101240.87
2019-04-22T00:40:14.851Z,101249.14
2019-04-22T00:40:44.736Z,101249.22
2019-04-22T00:41:21.031Z,101251.39
2019-04-22T00:41:57.171Z,101250.16
2019-04-22T00:42:28.925Z,101251.88
2019-04-22T00:42:58.796Z,101245.29
2019-04-22T00:43:35.566Z,101254.45
2019-04-22T00:44:13.817Z,101248.36
2019-04-22T00:44:40.302Z,101250.64
2019-04-22T00:45:11.645Z,101244.58
2019-04-22T00:45:44.739Z,101248.50
2019-04-22T00:46:23.856Z,101244.43
2019-04-22T00:46:54.146Z,101243.53
2019-04-22T00:47:27.840Z,101250.64
2019-04-22T00:48:02.426Z,101245.03
2019-04-22T00:48:38.352Z,101243.72
2019-04-22T00:49:52.709Z,101246.71
2019-04-22T00:50:09.259Z,101241.36
2019-04-22T00:50:19.267Z,101243.84
2019-04-22T00:50:46.677Z,101242.94
2019-04-22T00:51:33.789Z,101237.78
2019-04-22T00:52:25.168Z,101239.69
2019-04-22T00:53:03.872Z,101243.20
2019-04-22T00:53:30.079Z,101247.45
2019-04-22T00:54:00.789Z,101243.98
2019-04-22T00:54:41.582Z,101247.91
2019-04-22T00:55:11.972Z,101244.31
2019-04-22T00:56:07.933Z,101243.91
2019-04-22T00:56:32.627Z,101246.45
2019-04-22T00:57:08.737Z,101249.29
2019-04-22T00:57:38.879Z,101242.23
2019-04-22T00:58:22.755Z,101240.73
2019-04-22T00:58:46.810Z,101244.42
2019-04-22T00:59:23.767Z,101246.77
2019-04-22T00:59:57.256Z,101243.18
2019-04-22T01:00:31.314Z,101244.45
2019-04-22T01:01:12.498Z,101239.14
2019-04-22T01:01:36.971Z,101245.56
2019-04-22T01:02:15.270Z,101241.56
2019-04-22T01:02:48.037Z,101243.36
2019-04-22T01:03:24.077Z,101242.12
2019-04-22T01:03:56.649Z,101244.26
2019-04-22T01:05:04.018Z,101215.69
2019-04-22T01:05:38.748Z,101247.77
2019-04-22T01:06:09.755Z,101248.67
2019-04-22T01:06:38.480Z,101244.78
2019-04-22T01:07:13.059Z,101224.94
2019-04-22T01:07:45.096Z,101243.55
2019-04-22T01:08:21.139Z,101246.66
2019-04-22T01:09:28.176Z,101249.27
2019-04-22T01:10:34.085Z,101246.66
2019-04-22T01:11:13.010Z,101243.14
2019-04-22T01:11:41.966Z,101249.20
2019-04-22T01:12:13.901Z,101249.60
2019-04-22T01:12:44.076Z,101252.52
2019-04-22T01:13:21.641Z,101255.05
2019-04-22T01:13:55.286Z,101251.13
2019-04-22T01:14:29.739Z,101252.52
2019-04-22T01:15:01.107Z,101256.02
2019-04-22T01:15:35.443Z,101251.91
2019-04-22T01:16:12.084Z,101256.17
2019-04-22T01:16:43.027Z,101252.20
2019-04-22T01:17:12.108Z,101256.45
2019-04-22T01:17:49.480Z,101254.21
2019-04-22T01:18:15.804Z,101251.93
2019-04-22T01:18:55.637Z,101255.36
2019-04-22T01:19:35.069Z,101257.04
2019-04-22T01:21:42.132Z,101258.27
2019-04-22T01:22:13.438Z,101256.06
2019-04-22T01:22:38.361Z,101253.00
2019-04-22T01:23:19.759Z,101258.23
2019-04-22T01:23:49.096Z,101255.95
2019-04-22T01:24:22.216Z,101253.28
2019-04-22T01:24:56.352Z,101255.00
2019-04-22T01:25:26.312Z,101255.83
2019-04-22T01:25:56.954Z,101260.08
2019-04-22T01:26:29.982Z,101260.77
2019-04-22T01:27:06.411Z,101255.30
2019-04-22T01:27:36.630Z,101255.14
2019-04-22T01:28:06.378Z,101261.23
2019-04-22T01:28:39.558Z,101253.80
2019-04-22T01:29:12.253Z,101255.51
2019-04-22T01:29:46.373Z,101256.70
2019-04-22T01:30:20.051Z,101255.72
2019-04-22T01:30:48.178Z,101254.82
2019-04-22T01:31:18.165Z,101257.84
2019-04-22T01:31:47.374Z,101255.11
2019-04-22T01:32:26.315Z,101253.80
2019-04-22T01:32:54.304Z,101259.92
2019-04-22T01:33:31.105Z,101250.70
2019-04-22T01:34:10.283Z,101240.98
2019-04-22T01:34:49.307Z,101240.98
2019-04-22T01:35:17.955Z,101251.34
2019-04-22T01:35:58.244Z,101255.27
2019-04-22T01:36:33.719Z,101258.33
2019-04-22T01:37:03.568Z,101255.67
2019-04-22T01:37:34.527Z,101251.76
2019-04-22T01:38:07.969Z,101257.31
2019-04-22T01:38:56.302Z,101252.45
2019-04-22T01:39:23.393Z,101236.36
2019-04-22T01:39:56.953Z,101250.94
2019-04-22T01:40:31.513Z,101250.13
2019-04-22T01:41:07.186Z,101250.13
2019-04-22T01:41:42.405Z,101236.94
2019-04-22T01:42:24.423Z,101252.53
2019-04-22T01:42:50.451Z,101236.39
2019-04-22T01:43:16.880Z,101247.67
2019-04-22T01:44:00.703Z,101246.36
2019-04-22T01:44:29.466Z,101240.65
2019-04-22T01:44:50.546Z,101234.55
2019-04-22T01:45:38.336Z,101249.17
2019-04-22T01:46:12.686Z,101247.37
2019-04-22T01:47:10.155Z,101248.28
2019-04-22T01:47:43.940Z,101245.66
2019-04-22T01:48:19.671Z,101246.08
2019-04-22T01:48:57.470Z,101243.14
2019-04-22T01:49:27.502Z,101248.84
2019-04-22T01:50:03.877Z,101253.66
2019-04-22T01:50:32.103Z,101251.91
2019-04-22T01:51:00.740Z,101247.05
2019-04-22T01:51:45.497Z,101247.88
2019-04-22T01:52:11.407Z,101247.82
2019-04-22T01:52:47.365Z,101248.23
2019-04-22T01:53:21.373Z,101249.95
2019-04-22T01:53:53.095Z,101248.56
2019-04-22T01:54:29.836Z,101244.23
2019-04-22T01:54:54.655Z,101231.66
2019-04-22T01:55:31.090Z,101231.66
2019-04-22T01:56:06.111Z,101254.81
2019-04-22T01:57:03.383Z,101245.26
2019-04-22T01:57:41.939Z,101246.97
2019-04-22T01:58:10.955Z,101221.29
2019-04-22T01:58:38.478Z,101221.29
2019-04-22T01:59:15.797Z,101244.31
2019-04-22T01:59:45.741Z,101242.16
2019-04-22T02:00:27.244Z,101245.05
2019-04-22T02:01:08.926Z,101230.84
2019-04-22T02:01:41.599Z,101239.16
2019-04-22T02:02:09.897Z,101240.02
2019-04-22T02:02:42.838Z,101231.03
2019-04-22T02:03:17.688Z,101231.03
2019-04-22T02:03:54.674Z,101246.72
2019-04-22T02:04:29.768Z,101244.15
2019-04-22T02:05:01.218Z,101212.34
2019-04-22T02:05:30.100Z,101244.79
2019-04-22T02:06:09.034Z,101222.91
2019-04-22T02:06:35.166Z,101219.69
2019-04-22T02:07:10.791Z,101241.12
2019-04-22T02:07:43.661Z,101239.41
2019-04-22T02:08:25.100Z,101236.39
2019-04-22T02:08:53.328Z,101217.23
2019-04-22T02:09:41.273Z,101234.05
2019-04-22T02:09:55.556Z,101241.48
2019-04-22T02:10:34.552Z,101241.48
2019-04-22T02:11:00.999Z,101241.27
2019-04-22T02:11:41.309Z,101235.75
2019-04-22T02:12:17.693Z,101235.75
2019-04-22T02:12:42.877Z,101227.09
2019-04-22T02:13:15.643Z,101242.14
2019-04-22T02:13:49.361Z,101241.33
2019-04-22T02:14:26.978Z,101233.58
2019-04-22T02:14:52.256Z,101240.64
2019-04-22T02:15:36.030Z,101240.11
2019-04-22T02:16:05.716Z,101243.13
2019-04-22T02:16:34.613Z,101246.95
2019-04-22T02:17:09.240Z,101246.02
2019-04-22T02:18:18.566Z,101246.47
2019-04-22T02:18:58.444Z,101224.70
2019-04-22T02:19:22.730Z,101244.63
2019-04-22T02:20:28.092Z,101245.52
2019-04-22T02:20:54.549Z,101228.53
2019-04-22T02:21:28.590Z,101243.41
2019-04-22T02:22:00.900Z,101225.16
2019-04-22T02:23:30.522Z,101225.16
2019-04-22T02:24:28.260Z,101244.63
2019-04-22T02:24:54.269Z,101249.77
2019-04-22T02:25:34.649Z,101252.33
2019-04-22T02:26:40.463Z,101256.64
2019-04-22T02:27:13.972Z,101242.86
2019-04-22T02:27:51.473Z,101235.88
2019-04-22T02:28:26.048Z,101235.88
2019-04-22T02:28:52.362Z,101260.75
2019-04-22T02:29:27.050Z,101260.75
2019-04-22T02:29:51.966Z,101250.80
2019-04-22T02:30:42.170Z,101250.80
2019-04-22T02:31:45.374Z,101258.14
2019-04-22T02:32:21.595Z,101253.33
2019-04-22T02:33:03.776Z,101252.92
2019-04-22T02:34:09.329Z,101250.31
2019-04-22T02:35:03.956Z,101244.11
2019-04-22T02:35:55.101Z,101249.50
2019-04-22T02:37:45.979Z,101249.06
2019-04-22T02:38:35.747Z,101254.42
2019-04-22T02:39:26.050Z,101232.20
2019-04-22T02:40:03.676Z,101247.89
2019-04-22T02:40:46.064Z,101235.72
2019-04-22T02:41:22.429Z,101235.72
2019-04-22T02:42:14.323Z,101245.97
2019-04-22T02:42:51.873Z,101245.97
2019-04-22T02:43:34.164Z,101252.48
2019-04-22T02:44:01.702Z,101249.39
2019-04-22T02:44:55.922Z,101245.47
2019-04-22T02:45:41.813Z,101239.77
2019-04-22T02:46:39.723Z,101245.69
2019-04-22T02:47:42.269Z,101244.80
2019-04-22T02:48:35.805Z,101238.46
2019-04-22T02:49:25.249Z,101250.83
2019-04-22T02:50:02.452Z,101250.83
2019-04-22T02:50:28.656Z,101241.20
2019-04-22T02:51:12.601Z,101241.20
2019-04-22T02:51:32.645Z,101244.90
2019-04-22T02:52:20.419Z,101248.49
2019-04-22T02:53:29.730Z,101249.93
2019-04-22T02:55:32.278Z,101223.45
2019-04-22T02:56:19.976Z,101230.78
2019-04-22T02:56:39.883Z,101243.95
2019-04-22T02:57:12.219Z,101244.77
2019-04-22T02:58:35.327Z,101227.72
2019-04-22T03:00:01.475Z,101222.91
2019-04-22T03:00:35.392Z,101250.30
2019-04-22T03:01:05.309Z,101247.23
2019-04-22T03:01:39.628Z,101248.05
2019-04-22T03:02:10.322Z,101225.84
2019-04-22T03:02:50.626Z,101225.84
2019-04-22T03:04:06.964Z,101245.49
2019-04-22T03:04:31.132Z,101225.84
2019-04-22T03:04:57.805Z,101245.54
2019-04-22T03:05:56.708Z,101242.47
2019-04-22T03:06:56.020Z,101243.69
2019-04-22T03:07:40.943Z,101240.27
2019-04-22T03:08:14.880Z,101236.84
2019-04-22T03:08:47.415Z,101239.70
2019-04-22T03:09:20.652Z,101239.70
2019-04-22T03:10:29.515Z,101225.34
2019-04-22T03:11:04.094Z,101239.56
2019-04-22T03:11:34.035Z,101230.61
2019-04-22T03:12:09.622Z,101214.38
2019-04-22T03:13:21.709Z,101224.22
2019-04-22T03:14:30.364Z,101240.72
2019-04-22T03:15:06.538Z,101241.94
2019-04-22T03:15:21.987Z,101241.94
2019-04-22T03:17:03.544Z,101251.73
2019-04-22T03:18:20.038Z,101247.60
2019-04-22T03:18:53.713Z,101242.56
2019-04-22T03:20:22.089Z,101237.77
2019-04-22T03:21:00.103Z,101220.52
2019-04-22T03:21:27.613Z,101242.98
2019-04-22T03:22:00.576Z,101250.41
2019-04-22T03:22:34.392Z,101231.20
2019-04-22T03:23:16.846Z,101231.20
2019-04-22T03:24:26.137Z,101248.92
2019-04-22T03:25:12.488Z,101248.92
2019-04-22T03:26:34.100Z,101250.08
2019-04-22T03:26:59.102Z,101251.70
2019-04-22T03:27:31.793Z,101255.38
2019-04-22T03:28:05.118Z,101255.38
2019-04-22T03:28:49.722Z,101247.21
2019-04-22T03:29:11.168Z,101250.86
2019-04-22T03:33:06.503Z,101249.88
2019-04-22T03:33:26.125Z,101252.80
2019-04-22T03:34:15.356Z,101252.80
2019-04-22T03:35:16.143Z,101235.61
2019-04-22T03:36:12.761Z,101253.64
2019-04-22T03:37:06.718Z,101234.73
2019-04-22T03:38:07.279Z,101252.95
2019-04-22T03:39:07.984Z,101252.95
2019-04-22T03:39:37.782Z,101234.09
2019-04-22T03:40:46.676Z,101239.83
2019-04-22T03:41:05.584Z,101228.05
2019-04-22T03:41:54.476Z,101228.05
2019-04-22T03:42:07.857Z,101229.78
2019-04-22T03:42:52.256Z,101244.23
2019-04-22T03:43:13.744Z,101244.23
2019-04-22T03:44:04.448Z,101243.42
2019-04-22T03:45:02.805Z,101219.82
2019-04-22T03:45:32.000Z,101219.82
2019-04-22T03:45:58.792Z,101238.67
2019-04-22T03:46:41.959Z,101238.67
2019-04-22T03:47:43.573Z,101237.45
2019-04-22T03:48:07.651Z,101239.57
2019-04-22T03:48:51.167Z,101239.57
2019-04-22T03:50:05.535Z,101237.37
2019-04-22T03:51:09.263Z,101226.51
2019-04-22T03:51:47.290Z,101231.72
2019-04-22T03:52:11.545Z,101231.72
2019-04-22T03:52:27.855Z,101231.78
2019-04-22T03:53:55.476Z,101232.82
2019-04-22T03:54:29.753Z,101226.39
2019-04-22T03:55:00.702Z,101226.39
2019-04-22T03:55:23.120Z,101214.30
2019-04-22T03:56:49.612Z,101231.03
2019-04-22T03:57:48.828Z,101218.48
2019-04-22T03:57:57.009Z,101218.48
2019-04-22T03:58:51.202Z,101226.53
2019-04-22T04:00:55.548Z,101243.04
2019-04-22T04:01:36.955Z,101243.04
2019-04-22T04:03:07.034Z,101242.23
2019-04-22T04:03:57.801Z,101242.23
2019-04-22T04:04:28.097Z,101235.75
2019-04-22T04:04:47.479Z,101245.39
2019-04-22T04:05:33.531Z,101226.77
2019-04-22T04:06:05.213Z,101226.77
2019-04-22T04:06:43.382Z,101227.89
2019-04-22T04:07:15.152Z,101245.93
2019-04-22T04:09:49.875Z,101248.64
2019-04-22T04:10:30.000Z,101256.20
2019-04-22T04:11:38.383Z,101237.93
2019-04-22T04:12:42.030Z,101257.99
2019-04-22T04:13:08.338Z,101241.98
2019-04-22T04:13:41.459Z,101241.98
2019-04-22T04:14:18.205Z,101257.41
2019-04-22T04:14:53.978Z,101257.41
2019-04-22T04:15:48.492Z,101245.85
2019-04-22T04:16:35.263Z,101245.85
2019-04-22T04:17:02.150Z,101260.87
2019-04-22T04:17:39.820Z,101260.87
2019-04-22T04:18:47.338Z,101264.65
2019-04-22T04:19:30.797Z,101261.59
2019-04-22T04:19:58.655Z,101273.46
2019-04-22T04:21:00.691Z,101267.02
2019-04-22T04:21:37.614Z,101269.69
2019-04-22T04:22:00.683Z,101257.50
2019-04-22T04:23:58.081Z,101255.61
2019-04-22T04:24:31.939Z,101273.95
2019-04-22T04:26:39.387Z,101273.28
2019-04-22T04:28:26.986Z,101266.75
2019-04-22T04:29:26.323Z,101269.98
2019-04-22T04:30:23.269Z,101280.87
2019-04-22T04:30:48.656Z,101281.50
2019-04-22T04:32:08.402Z,101279.52
2019-04-22T04:33:38.149Z,101258.41
2019-04-22T04:34:16.889Z,101280.59
2019-04-22T04:35:26.968Z,101265.34
2019-04-22T04:35:54.842Z,101262.25
2019-04-22T04:37:07.395Z,101282.80
2019-04-22T04:37:42.458Z,101282.80
2019-04-22T04:37:56.076Z,101261.24
2019-04-22T04:38:39.000Z,101278.07
2019-04-22T04:39:07.368Z,101264.13
2019-04-22T04:39:51.144Z,101263.36
2019-04-22T04:40:20.768Z,101263.36
2019-04-22T04:41:26.480Z,101280.00
2019-04-22T04:43:40.587Z,101286.33
2019-04-22T04:45:10.964Z,101279.80
2019-04-22T04:46:27.247Z,101269.36
2019-04-22T04:46:59.002Z,101281.54
2019-04-22T04:47:57.839Z,101282.25
2019-04-22T04:48:44.741Z,101284.17
2019-04-22T04:49:14.082Z,101285.12
2019-04-22T04:50:35.875Z,101282.64
2019-04-22T04:50:48.811Z,101281.50
2019-04-22T04:51:30.993Z,101280.80
2019-04-22T04:52:43.058Z,101285.83
2019-04-22T04:53:10.006Z,101284.53
2019-04-22T04:53:33.750Z,101281.59
2019-04-22T04:54:13.201Z,101285.59
2019-04-22T04:54:41.479Z,101280.00
2019-04-22T04:56:20.485Z,101286.66
2019-04-22T05:01:55.646Z,101280.95
2019-04-22T05:02:33.113Z,101271.92
2019-04-22T05:03:08.164Z,101283.27
2019-04-22T05:03:39.730Z,101283.39
2019-04-22T05:04:46.490Z,101284.98
2019-04-22T05:05:12.558Z,101282.48
2019-04-22T05:06:12.880Z,101280.55
2019-04-22T05:06:52.139Z,101274.47
2019-04-22T05:08:42.597Z,101277.28
2019-04-22T05:09:11.743Z,101283.61
2019-04-22T05:09:27.840Z,101278.08
2019-04-22T05:10:53.616Z,101279.66
2019-04-22T05:11:14.300Z,101286.73
2019-04-22T05:12:56.782Z,101284.08
2019-04-22T05:13:33.571Z,101291.64
2019-04-22T05:15:11.233Z,101283.64
2019-04-22T05:15:43.143Z,101282.08
2019-04-22T05:16:26.555Z,101280.84
2019-04-22T05:16:51.510Z,101283.53
2019-04-22T05:17:18.397Z,101284.14
2019-04-22T05:18:05.783Z,101284.63
2019-04-22T05:18:24.046Z,101283.35
2019-04-22T05:19:02.506Z,101279.80
2019-04-22T05:20:06.142Z,101276.39
2019-04-22T05:20:49.273Z,101283.50
2019-04-22T05:21:40.705Z,101281.89
2019-04-22T05:22:14.968Z,101280.63
2019-04-22T05:22:59.474Z,101282.41
2019-04-22T05:23:28.866Z,101284.25
2019-04-22T05:23:55.097Z,101282.19
2019-04-22T05:24:58.198Z,101284.91
2019-04-22T05:25:26.975Z,101291.46
2019-04-22T05:26:05.839Z,101294.15
2019-04-22T05:26:44.819Z,101263.67
2019-04-22T05:27:47.189Z,101292.66
2019-04-22T05:28:16.462Z,101289.70
2019-04-22T05:28:50.271Z,101289.73
2019-04-22T05:29:26.665Z,101295.05
2019-04-22T05:30:19.538Z,101288.98
2019-04-22T05:30:32.629Z,101289.91
2019-04-22T05:31:08.703Z,101291.30
2019-04-22T05:31:38.892Z,101290.95
2019-04-22T05:32:09.219Z,101293.61
2019-04-22T05:32:44.344Z,101283.24
2019-04-22T05:33:14.242Z,101289.86
2019-04-22T05:33:48.353Z,101286.48
2019-04-22T05:34:22.561Z,101286.94
2019-04-22T05:34:52.797Z,101284.80
2019-04-22T05:35:32.225Z,101287.42
2019-04-22T05:36:07.413Z,101289.70
2019-04-22T05:36:42.564Z,101294.97
2019-04-22T05:37:14.775Z,101285.46
2019-04-22T05:37:49.967Z,101288.60
2019-04-22T05:38:58.257Z,101291.70
2019-04-22T05:39:25.044Z,101286.53
2019-04-22T05:40:06.606Z,101294.02
2019-04-22T05:40:47.963Z,101287.05
2019-04-22T05:41:02.356Z,101289.78
2019-04-22T05:42:42.646Z,101291.34
2019-04-22T05:43:16.210Z,101290.52
2019-04-22T05:43:50.293Z,101301.44
2019-04-22T05:44:22.717Z,101297.09
2019-04-22T05:44:55.378Z,101297.99
2019-04-22T05:45:33.061Z,101290.61
2019-04-22T05:46:02.928Z,101298.96
2019-04-22T05:46:45.970Z,101299.89
2019-04-22T05:47:14.891Z,101310.86
2019-04-22T05:47:47.048Z,101302.58
2019-04-22T05:48:18.850Z,101302.20
2019-04-22T05:48:54.257Z,101306.69
2019-04-22T05:49:23.907Z,101302.34
2019-04-22T05:49:55.168Z,101305.48
2019-04-22T05:50:29.483Z,101301.17
2019-04-22T05:51:04.558Z,101306.00
2019-04-22T05:51:38.644Z,101310.96
2019-04-22T05:52:09.630Z,101306.23
2019-04-22T05:52:51.355Z,101305.00
2019-04-22T05:53:31.211Z,101307.66
2019-04-22T05:54:01.342Z,101306.89
2019-04-22T05:54:32.991Z,101306.03
2019-04-22T05:55:08.244Z,101306.89
2019-04-22T05:55:41.982Z,101307.30
2019-04-22T05:56:22.092Z,101304.27
2019-04-22T05:56:51.712Z,101306.52
2019-04-22T05:57:18.115Z,101311.75
2019-04-22T05:57:51.042Z,101310.86
2019-04-22T05:58:24.367Z,101308.61
2019-04-22T05:59:34.421Z,101302.95
2019-04-22T06:00:06.591Z,101313.45
2019-04-22T06:01:51.551Z,101312.96
2019-04-22T06:02:23.828Z,101304.62
2019-04-22T06:03:20.887Z,101304.78
2019-04-22T06:04:08.740Z,101305.75
2019-04-22T06:04:29.516Z,101298.33
2019-04-22T06:05:06.965Z,101299.71
2019-04-22T06:05:38.571Z,101304.13
2019-04-22T06:06:09.301Z,101303.71
2019-04-22T06:06:35.366Z,101305.53
2019-04-22T06:07:13.426Z,101298.35
2019-04-22T06:07:45.623Z,101298.35
2019-04-22T06:08:24.080Z,101301.59
2019-04-22T06:08:57.572Z,101304.77
2019-04-22T06:09:30.635Z,101306.10
2019-04-22T06:10:08.253Z,101305.82
2019-04-22T06:10:39.841Z,101306.81
2019-04-22T06:11:16.855Z,101310.34
2019-04-22T06:11:32.227Z,101303.78
2019-04-22T06:12:12.297Z,101309.05
2019-04-22T06:12:43.372Z,101307.30
2019-04-22T06:13:18.015Z,101312.09
2019-04-22T06:13:58.755Z,101315.27
2019-04-22T06:14:31.083Z,101310.05
2019-04-22T06:15:09.665Z,101318.05
2019-04-22T06:15:52.912Z,101311.53
2019-04-22T06:16:09.218Z,101314.53
2019-04-22T06:17:24.723Z,101317.98
2019-04-22T06:18:07.651Z,101317.92
2019-04-22T06:18:27.221Z,101320.55
2019-04-22T06:19:02.812Z,101320.12
2019-04-22T06:19:34.881Z,101322.81
2019-04-22T06:20:07.583Z,101318.53
2019-04-22T06:20:50.339Z,101312.91
2019-04-22T06:22:09.634Z,101316.17
2019-04-22T06:22:31.972Z,101318.83
2019-04-22T06:22:57.109Z,101316.69
2019-04-22T06:23:34.673Z,101321.26
2019-04-22T06:24:08.282Z,101313.87
2019-04-22T06:24:38.962Z,101316.52
2019-04-22T06:25:09.384Z,101312.27
2019-04-22T06:26:21.974Z,101316.42
2019-04-22T06:27:02.326Z,101315.20
2019-04-22T06:27:30.932Z,101316.10
2019-04-22T06:27:54.193Z,101310.37
2019-04-22T06:28:38.340Z,101313.48
2019-04-22T06:29:06.690Z,101317.06
2019-04-22T06:29:31.623Z,101317.63
2019-04-22T06:30:09.711Z,101310.17
2019-04-22T06:30:42.602Z,101313.70
2019-04-22T06:31:18.691Z,101317.66
2019-04-22T06:32:15.294Z,101316.00
2019-04-22T06:32:26.524Z,101309.44
2019-04-22T06:32:53.901Z,101316.48
2019-04-22T06:33:31.615Z,101324.38
2019-04-22T06:34:05.696Z,101319.55
2019-04-22T06:34:37.428Z,101319.45
2019-04-22T06:35:18.335Z,101318.47
2019-04-22T06:35:45.907Z,101328.07
2019-04-22T06:36:17.982Z,101321.03
2019-04-22T06:36:51.822Z,101319.62
2019-04-22T06:38:18.922Z,101323.14
2019-04-22T06:38:33.987Z,101320.58
2019-04-22T06:39:01.697Z,101322.73
2019-04-22T06:39:34.205Z,101323.20
2019-04-22T06:40:10.585Z,101317.57
2019-04-22T06:40:46.963Z,101314.05
2019-04-22T06:41:13.733Z,101314.53
2019-04-22T06:41:47.609Z,101315.01
2019-04-22T06:42:21.769Z,101315.52
2019-04-22T06:42:58.586Z,101310.75
2019-04-22T06:43:29.627Z,101318.95
2019-04-22T06:44:09.363Z,101313.57
2019-04-22T06:45:15.236Z,101318.88
2019-04-22T06:45:41.488Z,101300.77
2019-04-22T06:46:14.418Z,101300.77
2019-04-22T06:46:47.887Z,101321.31
2019-04-22T06:47:27.322Z,101317.82
2019-04-22T06:48:02.623Z,101320.09
2019-04-22T06:48:27.953Z,101324.53
2019-04-22T06:49:03.056Z,101318.55
2019-04-22T06:50:07.672Z,101309.09
2019-04-22T06:51:18.343Z,101315.33
2019-04-22T06:51:46.819Z,101312.85
2019-04-22T06:52:17.766Z,101316.44
2019-04-22T06:52:54.519Z,101315.56
2019-04-22T06:53:23.934Z,101297.03
2019-04-22T06:54:00.112Z,101297.03
2019-04-22T06:54:37.464Z,101317.57
2019-04-22T06:55:09.680Z,101317.18
2019-04-22T06:56:14.279Z,101319.03
2019-04-22T06:56:42.797Z,101314.20
2019-04-22T06:57:13.424Z,101301.56
2019-04-22T06:57:53.550Z,101311.30
2019-04-22T06:58:20.001Z,101316.10
2019-04-22T06:58:52.334Z,101314.02
2019-04-22T06:59:31.266Z,101309.27
2019-04-22T07:00:05.599Z,101309.27
2019-04-22T07:00:36.712Z,101318.58
2019-04-22T07:01:17.846Z,101315.62
2019-04-22T07:01:45.772Z,101312.16
2019-04-22T07:02:23.864Z,101320.04
2019-04-22T07:03:12.366Z,101313.47
2019-04-22T07:04:29.697Z,101320.21
2019-04-22T07:05:02.734Z,101312.83
2019-04-22T07:06:17.436Z,101319.94
2019-04-22T07:06:48.079Z,101313.03
2019-04-22T07:07:14.167Z,101317.95
2019-04-22T07:07:45.599Z,101316.27
2019-04-22T07:09:36.915Z,101311.16
2019-04-22T07:10:15.109Z,101314.29
2019-04-22T07:10:45.121Z,101315.69
2019-04-22T07:11:07.850Z,101320.66
2019-04-22T07:11:43.187Z,101318.52
2019-04-22T07:12:20.390Z,101322.52
2019-04-22T07:12:49.210Z,101316.44
2019-04-22T07:13:27.463Z,101321.34
2019-04-22T07:14:01.668Z,101321.36
2019-04-22T07:14:28.642Z,101319.68
2019-04-22T07:15:03.310Z,101316.63
2019-04-22T07:15:48.411Z,101311.87
2019-04-22T07:16:03.982Z,101318.50
2019-04-22T07:16:43.234Z,101326.05
2019-04-22T07:17:22.188Z,101321.34
2019-04-22T07:17:50.547Z,101323.64
2019-04-22T07:18:25.054Z,101324.64
2019-04-22T07:18:54.966Z,101328.22
2019-04-22T07:19:28.854Z,101326.15
2019-04-22T07:20:04.060Z,101326.64
2019-04-22T07:20:38.286Z,101331.98
2019-04-22T07:21:10.402Z,101328.98
2019-04-22T07:21:46.788Z,101327.27
2019-04-22T07:22:19.834Z,101328.59
2019-04-22T07:22:45.572Z,101332.17
2019-04-22T07:23:30.270Z,101337.51
2019-04-22T07:24:02.934Z,101333.67
2019-04-22T07:24:58.900Z,101339.38
2019-04-22T07:25:36.394Z,101324.06
2019-04-22T07:26:11.477Z,101329.82
2019-04-22T07:26:39.446Z,101329.82
2019-04-22T07:27:14.504Z,101329.88
2019-04-22T07:27:46.017Z,101327.31
2019-04-22T07:28:21.227Z,101334.84
2019-04-22T07:28:56.455Z,101310.98
2019-04-22T07:29:31.028Z,101328.32
2019-04-22T07:30:03.972Z,101331.94
2019-04-22T07:30:35.008Z,101327.63
2019-04-22T07:31:06.670Z,101334.25
2019-04-22T07:31:42.510Z,101327.75
2019-04-22T07:32:13.122Z,101329.56
2019-04-22T07:33:05.738Z,101330.98
2019-04-22T07:33:55.543Z,101324.06
2019-04-22T07:34:40.761Z,101327.22
2019-04-22T07:35:01.148Z,101326.34
2019-04-22T07:35:41.768Z,101320.22
2019-04-22T07:36:31.907Z,101321.78
2019-04-22T07:37:25.820Z,101330.45
2019-04-22T07:37:41.568Z,101333.93
2019-04-22T07:38:25.115Z,101333.93
2019-04-22T07:38:42.514Z,101328.66
2019-04-22T07:39:24.039Z,101316.50
2019-04-22T07:39:50.330Z,101333.38
2019-04-22T07:40:34.094Z,101335.09
2019-04-22T07:40:59.305Z,101335.09
2019-04-22T07:41:38.387Z,101329.78
2019-04-22T07:42:12.450Z,101334.57
2019-04-22T07:42:45.760Z,101337.25
2019-04-22T07:43:21.004Z,101339.52
2019-04-22T07:44:26.049Z,101322.11
2019-04-22T07:45:01.109Z,101322.11